createdAt,value
2022-12-01T00:01:27.352Z,6.00
2022-12-01T00:04:51.558Z,6.03
2022-12-01T00:08:13.251Z,6.03
2022-12-01T00:11:38.529Z,5.85
2022-12-01T00:15:01.189Z,5.86
2022-12-01T00:18:25.403Z,5.78
2022-12-01T00:21:49.915Z,5.72
2022-12-01T00:25:13.298Z,5.69
2022-12-01T00:28:39.484Z,5.59
2022-12-01T00:32:01.136Z,5.50
2022-12-01T00:35:23.113Z,5.35
2022-12-01T00:38:44.966Z,5.22
2022-12-01T00:42:13.309Z,5.10
2022-12-01T00:45:35.155Z,5.13
2022-12-01T00:48:56.754Z,5.10
2022-12-01T00:52:19.303Z,5.16
2022-12-01T00:55:43.180Z,5.14
2022-12-01T00:59:04.737Z,4.86
2022-12-01T01:02:26.392Z,4.72
2022-12-01T01:05:50.433Z,4.68
2022-12-01T01:09:13.345Z,4.59
2022-12-01T01:12:39.628Z,4.69
2022-12-01T01:16:13.977Z,4.75
2022-12-01T01:19:35.540Z,4.65
2022-12-01T01:22:57.121Z,4.59
2022-12-01T01:26:20.427Z,4.52
2022-12-01T01:29:42.588Z,4.38
2022-12-01T01:33:04.097Z,4.36
2022-12-01T01:36:26.296Z,4.40
2022-12-01T01:39:48.039Z,4.34
2022-12-01T01:43:16.008Z,4.11
2022-12-01T01:46:37.759Z,4.03
2022-12-01T01:50:06.575Z,4.06
2022-12-01T01:53:30.892Z,4.20
2022-12-01T01:56:54.163Z,4.03
2022-12-01T02:00:20.554Z,3.90
2022-12-01T02:03:43.242Z,3.79
2022-12-01T02:07:05.499Z,3.68
2022-12-01T02:11:04.645Z,3.68
2022-12-01T02:14:47.945Z,3.65
2022-12-01T02:18:27.122Z,3.66
2022-12-01T02:22:00.704Z,3.63
2022-12-01T02:25:31.616Z,3.51
2022-12-01T02:29:11.615Z,3.52
2022-12-01T02:33:00.419Z,3.51
2022-12-01T02:36:37.258Z,3.58
2022-12-01T02:40:03.655Z,3.56
2022-12-01T02:43:55.612Z,3.51
2022-12-01T02:47:20.594Z,3.49
2022-12-01T02:50:43.899Z,3.39
2022-12-01T02:54:06.429Z,3.52
2022-12-01T02:57:33.119Z,3.52
2022-12-01T03:01:18.080Z,3.48
2022-12-01T03:04:52.317Z,3.45
2022-12-01T03:08:46.116Z,3.34
2022-12-01T03:12:10.750Z,3.41
2022-12-01T03:15:50.787Z,3.25
2022-12-01T03:19:43.694Z,3.21
2022-12-01T03:23:09.924Z,3.17
2022-12-01T03:26:35.923Z,3.15
2022-12-01T03:30:00.185Z,3.21
2022-12-01T03:33:29.011Z,3.03
2022-12-01T03:36:58.735Z,3.11
2022-12-01T03:40:28.889Z,3.07
2022-12-01T03:44:02.151Z,3.05
2022-12-01T03:47:29.398Z,3.05
2022-12-01T03:50:53.965Z,3.08
2022-12-01T03:54:28.746Z,3.36
2022-12-01T03:57:57.002Z,3.17
2022-12-01T04:01:19.354Z,3.15
2022-12-01T04:04:40.979Z,3.17
2022-12-01T04:08:07.920Z,3.07
2022-12-01T04:11:48.487Z,3.05
2022-12-01T04:15:14.558Z,3.00
2022-12-01T04:18:36.150Z,3.01
2022-12-01T04:21:59.947Z,3.07
2022-12-01T04:25:23.739Z,3.03
2022-12-01T04:28:45.336Z,3.01
2022-12-01T04:32:09.476Z,2.97
2022-12-01T04:35:30.997Z,2.89
2022-12-01T04:38:57.641Z,2.90
2022-12-01T04:42:19.191Z,2.92
2022-12-01T04:45:43.456Z,2.77
2022-12-01T04:49:08.322Z,2.73
2022-12-01T04:52:35.091Z,2.73
2022-12-01T04:55:57.021Z,2.66
2022-12-01T04:59:23.400Z,2.66
2022-12-01T05:02:45.948Z,2.80
2022-12-01T05:06:10.639Z,2.77
2022-12-01T05:09:32.210Z,2.73
2022-12-01T05:12:57.999Z,2.75
2022-12-01T05:16:27.857Z,2.73
2022-12-01T05:20:08.174Z,2.75
2022-12-01T05:23:34.738Z,2.89
2022-12-01T05:26:58.765Z,2.90
2022-12-01T05:30:23.112Z,2.89
2022-12-01T05:33:48.568Z,2.73
2022-12-01T05:37:10.109Z,2.71
2022-12-01T05:40:34.258Z,2.79
2022-12-01T05:43:55.794Z,2.75
2022-12-01T05:47:17.382Z,2.69
2022-12-01T05:50:41.219Z,2.92
2022-12-01T05:54:03.209Z,2.73
2022-12-01T05:57:27.743Z,2.49
2022-12-01T06:00:49.377Z,2.42
2022-12-01T06:04:10.944Z,2.62
2022-12-01T06:07:34.660Z,2.66
2022-12-01T06:10:56.236Z,2.79
2022-12-01T06:14:17.988Z,2.55
2022-12-01T06:17:42.560Z,2.44
2022-12-01T06:21:06.440Z,2.57
2022-12-01T06:24:27.985Z,2.50
2022-12-01T06:27:52.287Z,2.67
2022-12-01T06:31:13.833Z,2.56
2022-12-01T06:34:35.552Z,2.49
2022-12-01T06:37:57.146Z,2.52
2022-12-01T06:41:20.796Z,2.60
2022-12-01T06:44:42.425Z,2.75
2022-12-01T06:48:06.889Z,2.66
2022-12-01T06:51:33.801Z,2.63
2022-12-01T06:54:57.804Z,2.71
2022-12-01T06:58:19.616Z,2.72
2022-12-01T07:01:41.600Z,2.72
2022-12-01T07:05:03.176Z,2.75
2022-12-01T07:08:26.123Z,2.89
2022-12-01T07:11:50.178Z,2.86
2022-12-01T07:15:14.517Z,2.80
2022-12-01T07:18:40.584Z,2.93
2022-12-01T07:22:04.685Z,3.00
2022-12-01T07:25:28.495Z,3.07
2022-12-01T07:28:55.307Z,3.11
2022-12-01T07:32:16.798Z,3.17
2022-12-01T07:35:38.323Z,3.21
2022-12-01T07:39:00.627Z,3.36
2022-12-01T07:42:22.194Z,3.55
2022-12-01T07:45:46.092Z,3.52
2022-12-01T07:49:08.448Z,3.87
2022-12-01T07:52:29.961Z,4.47
2022-12-01T07:55:51.498Z,4.93
2022-12-01T07:59:13.069Z,5.37
2022-12-01T08:02:40.546Z,5.27
2022-12-01T08:06:03.134Z,5.17
2022-12-01T08:09:24.707Z,5.79
2022-12-01T08:12:49.158Z,5.72
2022-12-01T08:16:16.034Z,6.20
2022-12-01T08:19:37.739Z,6.52
2022-12-01T08:23:03.394Z,7.02
2022-12-01T08:26:27.655Z,7.20
2022-12-01T08:29:51.655Z,7.24
2022-12-01T08:33:13.293Z,7.44
2022-12-01T08:36:35.558Z,7.79
2022-12-01T08:39:59.431Z,8.30
2022-12-01T08:43:49.342Z,9.08
2022-12-01T08:47:02.440Z,9.08
2022-12-01T08:50:24.179Z,9.26
2022-12-01T08:53:48.140Z,9.36
2022-12-01T08:57:09.750Z,9.67
2022-12-01T09:00:31.268Z,10.01
2022-12-01T09:04:13.762Z,10.14
2022-12-01T09:07:35.409Z,9.95
2022-12-01T09:11:01.983Z,10.01
2022-12-01T09:14:28.186Z,10.08
2022-12-01T09:17:49.756Z,9.94
2022-12-01T09:21:23.542Z,10.15
2022-12-01T09:25:08.253Z,10.15
2022-12-01T09:28:32.043Z,10.52
2022-12-01T09:31:58.095Z,10.49
2022-12-01T09:35:23.542Z,10.69
2022-12-01T09:38:45.428Z,10.53
2022-12-01T09:42:15.473Z,10.48
2022-12-01T09:45:41.393Z,10.50
2022-12-01T09:49:04.019Z,10.48
2022-12-01T09:52:27.981Z,10.66
2022-12-01T09:55:59.274Z,10.91
2022-12-01T09:59:32.780Z,11.04
2022-12-01T10:03:12.506Z,10.97
2022-12-01T10:06:44.336Z,11.31
2022-12-01T10:10:17.719Z,11.49
2022-12-01T10:13:39.506Z,12.25
2022-12-01T10:17:19.597Z,12.75
2022-12-01T10:21:02.226Z,12.51
2022-12-01T10:24:40.539Z,12.85
2022-12-01T10:28:39.462Z,13.33
2022-12-01T10:32:16.541Z,13.66
2022-12-01T10:35:41.773Z,14.03
2022-12-01T10:39:11.102Z,14.09
2022-12-01T10:42:46.238Z,14.10
2022-12-01T10:46:25.708Z,14.68
2022-12-01T10:49:48.195Z,15.02
2022-12-01T10:53:25.306Z,14.88
2022-12-01T10:56:49.521Z,14.36
2022-12-01T11:00:51.375Z,13.79
2022-12-01T11:04:27.559Z,14.91
2022-12-01T11:07:49.913Z,14.16
2022-12-01T11:11:39.983Z,14.41
2022-12-01T11:15:01.971Z,14.84
2022-12-01T11:18:36.369Z,15.91
2022-12-01T11:22:06.022Z,16.60
2022-12-01T11:25:27.605Z,16.66
2022-12-01T11:28:58.750Z,16.71
2022-12-01T11:32:33.827Z,17.12
2022-12-01T11:35:55.731Z,17.48
2022-12-01T11:39:32.557Z,18.11
2022-12-01T11:42:57.861Z,18.13
2022-12-01T11:46:33.067Z,18.49
2022-12-01T11:49:58.578Z,18.83
2022-12-01T11:53:30.621Z,19.39
2022-12-01T11:57:25.345Z,19.89
2022-12-01T12:00:50.679Z,19.86
2022-12-01T12:04:37.142Z,19.99
2022-12-01T12:08:32.798Z,19.78
2022-12-01T12:12:19.458Z,19.35
2022-12-01T12:15:56.251Z,18.92
2022-12-01T12:20:06.803Z,17.93
2022-12-01T12:23:48.661Z,17.69
2022-12-01T12:27:13.191Z,17.55
2022-12-01T12:30:52.279Z,17.34
2022-12-01T12:34:46.733Z,17.22
2022-12-01T12:38:26.986Z,16.64
2022-12-01T12:41:53.019Z,16.91
2022-12-01T12:45:29.930Z,17.15
2022-12-01T12:49:25.774Z,17.14
2022-12-01T12:52:55.821Z,17.07
2022-12-01T12:56:20.829Z,16.97
2022-12-01T12:59:59.301Z,16.34
2022-12-01T13:03:37.279Z,15.77
2022-12-01T13:07:05.698Z,14.47
2022-12-01T13:10:36.622Z,13.55
2022-12-01T13:14:23.355Z,13.07
2022-12-01T13:18:01.274Z,12.52
2022-12-01T13:21:24.199Z,12.00
2022-12-01T13:24:51.094Z,11.52
2022-12-01T13:28:28.973Z,11.40
2022-12-01T13:31:52.847Z,11.08
2022-12-01T13:35:23.411Z,11.07
2022-12-01T13:39:04.185Z,10.87
2022-12-01T13:42:32.386Z,10.77
2022-12-01T13:46:04.240Z,10.69
2022-12-01T13:49:44.197Z,10.55
2022-12-01T13:53:33.413Z,10.45
2022-12-01T13:57:04.875Z,10.43
2022-12-01T14:00:34.869Z,10.35
2022-12-01T14:04:02.467Z,10.21
2022-12-01T14:07:36.627Z,10.02
2022-12-01T14:11:01.690Z,9.99
2022-12-01T14:14:28.461Z,9.85
2022-12-01T14:18:21.982Z,9.80
2022-12-01T14:21:49.657Z,9.63
2022-12-01T14:25:20.383Z,9.56
2022-12-01T14:29:00.422Z,9.46
2022-12-01T14:32:23.050Z,9.37
2022-12-01T14:35:44.897Z,9.27
2022-12-01T14:39:11.495Z,9.18
2022-12-01T14:42:58.071Z,8.99
2022-12-01T14:46:24.601Z,9.01
2022-12-01T14:50:00.889Z,8.98
2022-12-01T14:53:32.832Z,8.92
2022-12-01T14:57:04.304Z,8.95
2022-12-01T15:00:27.532Z,8.75
2022-12-01T15:03:54.342Z,8.67
2022-12-01T15:07:21.615Z,8.51
2022-12-01T15:10:59.758Z,8.67
2022-12-01T15:14:26.357Z,8.57
2022-12-01T15:17:51.598Z,8.43
2022-12-01T15:21:20.716Z,8.57
2022-12-01T15:24:43.453Z,8.59
2022-12-01T15:28:22.985Z,8.46
2022-12-01T15:31:49.069Z,8.41
2022-12-01T15:35:20.503Z,8.39
2022-12-01T15:38:48.293Z,8.36
2022-12-01T15:42:26.157Z,8.39
2022-12-01T15:46:14.987Z,8.02
2022-12-01T15:49:51.476Z,8.05
2022-12-01T15:53:21.948Z,7.89
2022-12-01T15:56:44.677Z,7.92
2022-12-01T16:00:09.446Z,8.06
2022-12-01T16:03:50.346Z,7.92
2022-12-01T16:07:13.006Z,7.81
2022-12-01T16:10:36.645Z,7.99
2022-12-01T16:14:02.978Z,7.86
2022-12-01T16:17:27.312Z,7.81
2022-12-01T16:20:49.915Z,7.93
2022-12-01T16:24:31.534Z,7.92
2022-12-01T16:27:56.565Z,7.86
2022-12-01T16:31:20.770Z,7.68
2022-12-01T16:34:46.753Z,7.55
2022-12-01T16:38:19.510Z,7.38
2022-12-01T16:41:44.736Z,7.40
2022-12-01T16:45:09.582Z,7.38
2022-12-01T16:48:31.567Z,7.28
2022-12-01T16:51:57.432Z,7.38
2022-12-01T16:55:42.088Z,7.92
2022-12-01T16:59:04.948Z,8.39
2022-12-01T17:02:28.947Z,8.72
2022-12-01T17:05:51.156Z,8.91
2022-12-01T17:09:12.763Z,9.04
2022-12-01T17:12:34.333Z,8.93
2022-12-01T17:15:55.941Z,8.79
2022-12-01T17:19:20.168Z,8.64
2022-12-01T17:22:41.733Z,8.59
2022-12-01T17:26:07.773Z,8.51
2022-12-01T17:29:29.314Z,8.40
2022-12-01T17:32:50.978Z,8.32
2022-12-01T17:36:14.289Z,8.25
2022-12-01T17:39:38.087Z,8.20
2022-12-01T17:43:02.097Z,8.09
2022-12-01T17:46:26.062Z,8.09
2022-12-01T17:49:47.621Z,8.07
2022-12-01T17:53:09.325Z,7.93
2022-12-01T17:56:31.365Z,7.85
2022-12-01T17:59:52.929Z,7.84
2022-12-01T18:03:18.044Z,7.71
2022-12-01T18:06:39.961Z,7.36
2022-12-01T18:10:03.785Z,7.00
2022-12-01T18:13:25.360Z,6.69
2022-12-01T18:16:46.932Z,6.63
2022-12-01T18:20:09.129Z,6.47
2022-12-01T18:23:30.657Z,6.29
2022-12-01T18:26:56.757Z,6.41
2022-12-01T18:30:18.395Z,6.37
2022-12-01T18:33:41.946Z,6.44
2022-12-01T18:37:05.816Z,6.37
2022-12-01T18:40:27.343Z,6.26
2022-12-01T18:43:49.468Z,6.21
2022-12-01T18:47:11.165Z,5.99
2022-12-01T18:50:36.577Z,6.05
2022-12-01T18:53:59.473Z,5.81
2022-12-01T18:57:23.450Z,5.85
2022-12-01T19:00:45.089Z,5.86
2022-12-01T19:04:08.141Z,5.72
2022-12-01T19:07:30.226Z,5.68
2022-12-01T19:11:05.200Z,5.52
2022-12-01T19:14:30.674Z,5.54
2022-12-01T19:17:52.229Z,5.68
2022-12-01T19:21:16.554Z,5.89
2022-12-01T19:24:40.500Z,6.13
2022-12-01T19:28:02.480Z,6.33
2022-12-01T19:31:26.596Z,6.38
2022-12-01T19:34:48.476Z,6.48
2022-12-01T19:38:12.998Z,6.37
2022-12-01T19:41:39.782Z,6.13
2022-12-01T19:45:01.349Z,5.93
2022-12-01T19:48:22.922Z,6.07
2022-12-01T19:51:46.673Z,6.23
2022-12-01T19:55:09.201Z,6.36
2022-12-01T19:58:35.572Z,6.44
2022-12-01T20:01:59.750Z,6.45
2022-12-01T20:05:21.321Z,6.47
2022-12-01T20:08:43.346Z,6.40
2022-12-01T20:12:04.976Z,6.45
2022-12-01T20:15:28.861Z,6.42
2022-12-01T20:18:51.665Z,6.07
2022-12-01T20:22:13.258Z,5.71
2022-12-01T20:25:37.122Z,5.48
2022-12-01T20:29:04.125Z,5.30
2022-12-01T20:32:25.768Z,5.17
2022-12-01T20:35:50.008Z,5.06
2022-12-01T20:39:12.831Z,5.00
2022-12-01T20:42:39.657Z,5.00
2022-12-01T20:46:01.864Z,5.07
2022-12-01T20:49:26.006Z,5.01
2022-12-01T20:52:47.493Z,4.93
2022-12-01T20:56:11.605Z,4.82
2022-12-01T20:59:36.918Z,4.72
2022-12-01T21:03:01.176Z,4.77
2022-12-01T21:06:25.148Z,4.95
2022-12-01T21:09:46.903Z,5.17
2022-12-01T21:13:39.147Z,5.31
2022-12-01T21:17:09.678Z,5.48
2022-12-01T21:20:36.033Z,5.52
2022-12-01T21:24:18.714Z,5.52
2022-12-01T21:27:42.717Z,5.52
2022-12-01T21:31:15.417Z,5.48
2022-12-01T21:34:36.980Z,5.09
2022-12-01T21:38:04.309Z,4.73
2022-12-01T21:41:28.309Z,4.61
2022-12-01T21:44:52.294Z,4.52
2022-12-01T21:48:19.534Z,4.38
2022-12-01T21:51:41.205Z,4.25
2022-12-01T21:55:22.648Z,4.27
2022-12-01T21:58:46.828Z,4.30
2022-12-01T22:02:33.807Z,4.52
2022-12-01T22:06:28.680Z,4.38
2022-12-01T22:09:52.248Z,4.45
2022-12-01T22:13:13.812Z,4.22
2022-12-01T22:16:42.049Z,4.24
2022-12-01T22:20:20.593Z,4.16
2022-12-01T22:23:44.449Z,4.10
2022-12-01T22:27:33.194Z,3.86
2022-12-01T22:30:55.025Z,4.00
2022-12-01T22:34:22.593Z,4.07
2022-12-01T22:37:48.321Z,4.18
2022-12-01T22:41:14.110Z,4.17
2022-12-01T22:44:41.762Z,4.17
2022-12-01T22:48:13.379Z,4.14
2022-12-01T22:51:48.288Z,3.99
2022-12-01T22:55:18.367Z,4.04
2022-12-01T22:58:41.163Z,4.13
2022-12-01T23:02:20.730Z,4.25
2022-12-01T23:05:42.855Z,4.52
2022-12-01T23:09:13.454Z,4.52
2022-12-01T23:12:38.653Z,4.66
2022-12-01T23:16:00.293Z,4.72
2022-12-01T23:19:21.882Z,4.48
2022-12-01T23:22:43.582Z,4.48
2022-12-01T23:26:11.152Z,4.49
2022-12-01T23:29:32.833Z,4.56
2022-12-01T23:33:09.211Z,4.34
2022-12-01T23:36:33.121Z,4.21
2022-12-01T23:39:55.466Z,4.22
2022-12-01T23:43:24.424Z,4.18
2022-12-01T23:46:46.777Z,4.22
2022-12-01T23:50:22.500Z,4.22
2022-12-01T23:53:44.421Z,4.33
2022-12-01T23:57:20.694Z,4.42
